Time;durP1;ratioP1;P1;durP2;ratioP2;P2;SDS_P1;SDS_P2;PMS_P1;PMS_P2;Temp;Humidity;BMP_temperature;BMP_pressure;BME280_temperature;BME280_humidity;BME280_pressure;Samples;Min_cycle;Max_cycle;Signal;HPM_P1;HPM_P2
2023/10/19 00:01:15;;;;;;;9.07;8.15;;;;;;;;;;5062650;28;20492;-59
2023/10/19 00:03:42;;;;;;;10.20;9.20;;;;;;;;;;5060934;28;20048;-58
2023/10/19 00:06:08;;;;;;;10.63;8.90;;;;;;;;;;5062925;28;20048;-57
2023/10/19 00:08:41;;;;;;;9.65;8.52;;;;;;;;;;5061607;28;20078;-58
2023/10/19 00:13:35;;;;;;;11.05;9.98;;;;;;;;;;5062536;28;20043;-58
2023/10/19 00:16:10;;;;;;;8.95;8.05;;;;;;;;;;5061778;28;20044;-58
2023/10/19 00:18:36;;;;;;;10.38;9.38;;;;;;;;;;5062114;28;20370;-56
2023/10/19 00:21:11;;;;;;;12.02;10.45;;;;;;;;;;5062680;28;20066;-58
2023/10/19 00:23:39;;;;;;;13.05;11.20;;;;;;;;;;5060608;28;20048;-56
2023/10/19 00:26:10;;;;;;;13.30;11.05;;;;;;;;;;5062389;28;20501;-58
2023/10/19 00:28:38;;;;;;;10.90;9.75;;;;;;;;;;5061573;28;20033;-58
2023/10/19 00:31:08;;;;;;;11.10;9.30;;;;;;;;;;5061700;28;20055;-57
2023/10/19 00:33:38;;;;;;;12.15;9.55;;;;;;;;;;5061715;28;20044;-57
2023/10/19 00:36:07;;;;;;;10.20;9.20;;;;;;;;;;5062173;28;20044;-57
2023/10/19 00:43:33;;;;;;;11.32;9.63;;;;;;;;;;5054394;28;20041;-58
2023/10/19 00:46:03;;;;;;;12.32;10.70;;;;;;;;;;5061551;28;20123;-58
2023/10/19 00:48:29;;;;;;;13.35;11.73;;;;;;;;;;5062159;28;20029;-56
2023/10/19 00:51:06;;;;;;;12.10;10.90;;;;;;;;;;5061025;28;20041;-58
2023/10/19 00:53:38;;;;;;;12.35;11.07;;;;;;;;;;5063456;28;20496;-58
2023/10/19 00:56:05;;;;;;;11.30;10.00;;;;;;;;;;5063800;28;20044;-55
2023/10/19 00:58:35;;;;;;;12.07;10.48;;;;;;;;;;5065459;28;20040;-58
2023/10/19 01:01:05;;;;;;;12.13;10.80;;;;;;;;;;5066137;28;21053;-55
2023/10/19 01:03:35;;;;;;;14.32;12.82;;;;;;;;;;5064115;28;20060;-56
2023/10/19 01:06:05;;;;;;;12.80;11.50;;;;;;;;;;5065194;28;20397;-58
2023/10/19 01:08:41;;;;;;;14.27;11.60;;;;;;;;;;5065421;28;20052;-57
2023/10/19 01:11:10;;;;;;;12.63;11.32;;;;;;;;;;5066104;28;20040;-57
2023/10/19 01:13:36;;;;;;;15.77;12.40;;;;;;;;;;5064987;28;20068;-58
2023/10/19 01:16:04;;;;;;;13.10;11.35;;;;;;;;;;5065682;28;20445;-57
2023/10/19 01:18:33;;;;;;;12.98;10.50;;;;;;;;;;5065422;28;20238;-58
2023/10/19 01:21:06;;;;;;;13.27;11.88;;;;;;;;;;5065270;28;20040;-58
2023/10/19 01:23:35;;;;;;;13.57;12.18;;;;;;;;;;5066006;28;20047;-58
2023/10/19 01:26:07;;;;;;;13.00;11.55;;;;;;;;;;5064461;28;20640;-57
2023/10/19 01:29:00;;;;;;;13.27;11.95;;;;;;;;;;5065373;28;20131;-58
2023/10/19 01:33:57;;;;;;;15.15;11.60;;;;;;;;;;5064235;28;20645;-56
2023/10/19 01:38:53;;;;;;;15.68;12.95;;;;;;;;;;5065375;28;20052;-58
2023/10/19 01:41:19;;;;;;;13.38;10.45;;;;;;;;;;5064503;28;20055;-58
2023/10/19 01:43:46;;;;;;;13.65;10.38;;;;;;;;;;5065060;28;20133;-57
2023/10/19 01:46:16;;;;;;;12.07;10.85;;;;;;;;;;5065670;28;20044;-57
2023/10/19 01:48:43;;;;;;;12.35;11.15;;;;;;;;;;5064031;28;20079;-58
2023/10/19 01:51:13;;;;;;;12.32;11.10;;;;;;;;;;5064358;28;20052;-57
2023/10/19 01:53:44;;;;;;;14.27;12.32;;;;;;;;;;5064771;28;20040;-58
2023/10/19 01:56:10;;;;;;;13.63;12.02;;;;;;;;;;5063952;28;20511;-58
2023/10/19 01:58:38;;;;;;;13.65;12.25;;;;;;;;;;5064947;28;20037;-57
2023/10/19 02:03:43;;;;;;;11.40;10.23;;;;;;;;;;5062059;28;20053;-58
2023/10/19 02:06:16;;;;;;;11.55;10.38;;;;;;;;;;5064022;28;20400;-58
2023/10/19 02:08:43;;;;;;;12.85;11.63;;;;;;;;;;5063483;28;20496;-58
2023/10/19 02:11:17;;;;;;;12.10;10.90;;;;;;;;;;5064619;28;20462;-57
2023/10/19 02:13:49;;;;;;;12.55;11.27;;;;;;;;;;5062452;28;20405;-58
2023/10/19 02:16:16;;;;;;;12.53;10.50;;;;;;;;;;5063435;28;20044;-57
2023/10/19 02:18:45;;;;;;;11.38;10.25;;;;;;;;;;5064052;28;20044;-55
2023/10/19 02:21:14;;;;;;;11.55;10.43;;;;;;;;;;5064560;28;20048;-57
2023/10/19 02:23:41;;;;;;;13.13;11.25;;;;;;;;;;5063549;28;20048;-56
2023/10/19 02:26:08;;;;;;;11.70;10.38;;;;;;;;;;5063560;28;20087;-58
2023/10/19 02:28:40;;;;;;;11.82;10.45;;;;;;;;;;5045549;28;20048;-58
2023/10/19 02:31:18;;;;;;;11.98;10.68;;;;;;;;;;5063449;28;20048;-56
2023/10/19 02:33:45;;;;;;;10.90;9.80;;;;;;;;;;5062200;28;20476;-56
2023/10/19 02:36:13;;;;;;;10.80;9.73;;;;;;;;;;5063351;28;20415;-55
2023/10/19 02:38:48;;;;;;;11.52;10.05;;;;;;;;;;5063805;28;20044;-56
2023/10/19 02:41:15;;;;;;;10.27;9.38;;;;;;;;;;5063933;28;20048;-56
2023/10/19 02:43:45;;;;;;;8.15;7.35;;;;;;;;;;5062636;28;20131;-56
2023/10/19 02:46:13;;;;;;;10.45;9.45;;;;;;;;;;5063304;28;20402;-56
2023/10/19 02:48:44;;;;;;;9.07;8.20;;;;;;;;;;5063245;28;20496;-56
2023/10/19 02:51:10;;;;;;;8.70;7.90;;;;;;;;;;5063703;28;20068;-56
2023/10/19 02:53:38;;;;;;;8.18;7.38;;;;;;;;;;5063968;28;20435;-56
2023/10/19 02:56:10;;;;;;;9.13;8.32;;;;;;;;;;5060948;28;20044;-54
2023/10/19 02:58:37;;;;;;;9.02;8.15;;;;;;;;;;5062810;28;20071;-56
2023/10/19 03:01:03;;;;;;;9.25;8.35;;;;;;;;;;5045540;28;20045;-56
2023/10/19 03:03:30;;;;;;;10.27;9.27;;;;;;;;;;5064437;28;20158;-56
2023/10/19 03:05:59;;;;;;;8.35;7.50;;;;;;;;;;5063172;28;20040;-55
2023/10/19 03:08:26;;;;;;;9.43;8.52;;;;;;;;;;5063704;28;20040;-56
2023/10/19 03:11:03;;;;;;;9.52;8.00;;;;;;;;;;5063142;28;20450;-56
2023/10/19 03:13:29;;;;;;;9.68;8.77;;;;;;;;;;5063157;28;20841;-56
2023/10/19 03:15:57;;;;;;;9.18;8.27;;;;;;;;;;5062934;28;20048;-56
2023/10/19 03:18:25;;;;;;;7.80;7.10;;;;;;;;;;5062401;28;20051;-55
2023/10/19 03:20:51;;;;;;;9.75;7.82;;;;;;;;;;5061651;28;20045;-57
2023/10/19 03:23:17;;;;;;;8.63;7.82;;;;;;;;;;5063572;28;20044;-56
2023/10/19 03:26:22;;;;;;;8.43;7.70;;;;;;;;;;5062483;28;20042;-57
2023/10/19 03:28:35;;;;;;;7.63;6.93;;;;;;;;;;5062740;28;20489;-56
2023/10/19 03:31:01;;;;;;;7.70;7.03;;;;;;;;;;5062725;28;20644;-56
2023/10/19 03:33:28;;;;;;;8.60;7.75;;;;;;;;;;5062942;28;20059;-56
2023/10/19 03:35:54;;;;;;;9.32;8.00;;;;;;;;;;5062279;28;20480;-56
2023/10/19 03:38:22;;;;;;;7.25;6.55;;;;;;;;;;5063437;28;20363;-56
2023/10/19 03:40:52;;;;;;;6.75;6.07;;;;;;;;;;5061755;28;20466;-56
2023/10/19 03:43:26;;;;;;;7.38;6.70;;;;;;;;;;5061965;28;20052;-55
2023/10/19 03:45:53;;;;;;;7.47;6.78;;;;;;;;;;5062051;28;20556;-55
2023/10/19 03:48:26;;;;;;;7.43;6.72;;;;;;;;;;5044024;28;20048;-56
2023/10/19 03:50:53;;;;;;;7.35;6.68;;;;;;;;;;5062286;28;20101;-56
2023/10/19 03:53:21;;;;;;;6.95;6.30;;;;;;;;;;5063152;28;20465;-56
2023/10/19 03:55:47;;;;;;;7.03;6.32;;;;;;;;;;5061906;28;20040;-56
2023/10/19 03:58:13;;;;;;;7.45;6.75;;;;;;;;;;5062620;28;20710;-56
2023/10/19 04:00:39;;;;;;;7.32;6.63;;;;;;;;;;5061726;28;20139;-57
2023/10/19 04:03:06;;;;;;;7.85;7.15;;;;;;;;;;5062387;28;20084;-56
2023/10/19 04:05:38;;;;;;;7.35;6.75;;;;;;;;;;5059199;28;20080;-56
2023/10/19 04:08:12;;;;;;;7.63;6.95;;;;;;;;;;5061870;28;20101;-56
2023/10/19 04:10:39;;;;;;;6.03;5.53;;;;;;;;;;5062128;28;20052;-56
2023/10/19 04:13:09;;;;;;;5.75;5.25;;;;;;;;;;5062812;28;20127;-56
2023/10/19 04:15:35;;;;;;;6.57;6.07;;;;;;;;;;5061550;28;20053;-54
2023/10/19 04:18:02;;;;;;;6.10;5.55;;;;;;;;;;5044635;28;20147;-56
2023/10/19 04:21:03;;;;;;;6.53;5.93;;;;;;;;;;5063164;28;20052;-56
2023/10/19 04:23:21;;;;;;;6.95;6.35;;;;;;;;;;5059466;28;20036;-56
2023/10/19 04:25:47;;;;;;;6.50;6.00;;;;;;;;;;5062212;28;20056;-56
2023/10/19 04:28:30;;;;;;;5.30;4.80;;;;;;;;;;5062126;28;20041;-55
2023/10/19 04:30:56;;;;;;;6.68;6.07;;;;;;;;;;5058977;28;20167;-55
2023/10/19 04:33:25;;;;;;;5.60;5.10;;;;;;;;;;5062207;28;20156;-56
2023/10/19 04:35:55;;;;;;;5.45;4.97;;;;;;;;;;5059610;28;20306;-57
2023/10/19 04:38:21;;;;;;;7.65;6.95;;;;;;;;;;5061577;28;20510;-55
2023/10/19 04:40:47;;;;;;;6.75;6.25;;;;;;;;;;5060128;28;20040;-56
2023/10/19 04:43:13;;;;;;;7.78;7.07;;;;;;;;;;5061477;28;20037;-56
2023/10/19 04:45:44;;;;;;;6.95;6.35;;;;;;;;;;5061822;28;20044;-55
2023/10/19 04:48:10;;;;;;;6.85;6.25;;;;;;;;;;5061917;28;20041;-56
2023/10/19 04:50:36;;;;;;;6.88;6.28;;;;;;;;;;5026284;28;20037;-54
2023/10/19 04:53:02;;;;;;;6.70;6.07;;;;;;;;;;5061632;28;20076;-55
2023/10/19 04:55:32;;;;;;;5.88;5.38;;;;;;;;;;5062933;28;20036;-55
2023/10/19 04:57:58;;;;;;;5.88;5.38;;;;;;;;;;5059472;28;20045;-56
2023/10/19 05:00:24;;;;;;;5.95;5.45;;;;;;;;;;5062108;28;20070;-56
2023/10/19 05:02:51;;;;;;;5.97;5.47;;;;;;;;;;5061552;28;20072;-56
2023/10/19 05:05:18;;;;;;;5.07;4.68;;;;;;;;;;5061183;28;20143;-57
2023/10/19 05:07:44;;;;;;;4.63;4.22;;;;;;;;;;5061650;28;20511;-56
2023/10/19 05:10:11;;;;;;;4.60;3.97;;;;;;;;;;5061167;28;20051;-54
2023/10/19 05:12:37;;;;;;;4.55;4.20;;;;;;;;;;5061466;28;20126;-57
2023/10/19 05:15:05;;;;;;;5.18;4.68;;;;;;;;;;5062181;28;20067;-56
2023/10/19 05:17:31;;;;;;;5.10;4.60;;;;;;;;;;5060410;28;20041;-56
2023/10/19 05:19:57;;;;;;;5.65;5.15;;;;;;;;;;5061091;28;20503;-56
2023/10/19 05:22:24;;;;;;;4.35;4.05;;;;;;;;;;5062069;28;20040;-57
2023/10/19 05:24:51;;;;;;;4.63;4.22;;;;;;;;;;5061439;28;20051;-57
2023/10/19 05:27:17;;;;;;;4.70;4.20;;;;;;;;;;5061094;28;20601;-57
2023/10/19 05:29:43;;;;;;;4.15;3.85;;;;;;;;;;5061384;28;20032;-57
2023/10/19 05:32:09;;;;;;;3.97;3.67;;;;;;;;;;5061430;28;20047;-56
2023/10/19 05:34:36;;;;;;;4.30;4.00;;;;;;;;;;5060608;28;20028;-56
2023/10/19 05:37:02;;;;;;;3.15;2.95;;;;;;;;;;5062364;28;20693;-56
2023/10/19 05:39:33;;;;;;;2.90;2.70;;;;;;;;;;5061123;28;20488;-56
2023/10/19 05:42:00;;;;;;;4.10;3.70;;;;;;;;;;5065141;28;20044;-56
2023/10/19 05:44:27;;;;;;;3.35;3.05;;;;;;;;;;5064740;28;20052;-56
2023/10/19 05:46:54;;;;;;;3.45;3.15;;;;;;;;;;5062692;28;20484;-57
2023/10/19 05:49:20;;;;;;;3.50;3.20;;;;;;;;;;5065298;28;20120;-54
2023/10/19 05:51:46;;;;;;;2.78;2.58;;;;;;;;;;5063230;28;20552;-56
2023/10/19 05:54:13;;;;;;;3.00;2.80;;;;;;;;;;5064440;28;20044;-56
2023/10/19 05:56:39;;;;;;;3.17;2.88;;;;;;;;;;5063780;28;20662;-55
2023/10/19 05:59:06;;;;;;;2.90;2.70;;;;;;;;;;5065061;28;20059;-56
2023/10/19 06:01:32;;;;;;;2.80;2.60;;;;;;;;;;5064603;28;20041;-56
2023/10/19 06:03:58;;;;;;;2.80;2.60;;;;;;;;;;5062606;28;20102;-56
2023/10/19 06:06:24;;;;;;;2.83;2.63;;;;;;;;;;5064943;28;20463;-56
2023/10/19 06:08:53;;;;;;;3.03;2.83;;;;;;;;;;5062825;28;20044;-55
2023/10/19 06:11:19;;;;;;;2.30;2.20;;;;;;;;;;5063046;28;20518;-56
2023/10/19 06:13:45;;;;;;;2.20;2.10;;;;;;;;;;5064097;28;20032;-57
2023/10/19 06:16:11;;;;;;;2.60;2.40;;;;;;;;;;5063761;28;20048;-56
2023/10/19 06:18:37;;;;;;;2.05;1.95;;;;;;;;;;5064788;28;20098;-57
2023/10/19 06:21:04;;;;;;;2.70;2.50;;;;;;;;;;5064122;28;20135;-56
2023/10/19 06:23:31;;;;;;;2.60;2.40;;;;;;;;;;5064108;28;20421;-55
2023/10/19 06:25:57;;;;;;;1.80;1.70;;;;;;;;;;5063955;28;20909;-56
2023/10/19 06:28:23;;;;;;;1.80;1.67;;;;;;;;;;5063554;28;20441;-56
2023/10/19 06:30:50;;;;;;;1.80;1.70;;;;;;;;;;5063021;28;20044;-56
2023/10/19 06:33:16;;;;;;;1.58;1.48;;;;;;;;;;5064252;28;20496;-56
2023/10/19 06:35:42;;;;;;;1.80;1.70;;;;;;;;;;5045560;28;20045;-56
2023/10/19 06:38:09;;;;;;;2.00;1.90;;;;;;;;;;5064063;28;20082;-56
2023/10/19 06:40:38;;;;;;;1.48;1.38;;;;;;;;;;5064319;28;20036;-56
2023/10/19 06:43:05;;;;;;;2.65;2.08;;;;;;;;;;5063944;28;20316;-55
2023/10/19 06:45:31;;;;;;;2.03;1.92;;;;;;;;;;5063695;28;21313;-56
2023/10/19 06:47:59;;;;;;;2.03;1.92;;;;;;;;;;5063259;28;21396;-56
2023/10/19 06:50:26;;;;;;;1.90;1.80;;;;;;;;;;5062501;28;20055;-56
2023/10/19 06:52:54;;;;;;;1.67;1.58;;;;;;;;;;5063518;28;20626;-55
2023/10/19 06:55:20;;;;;;;1.55;1.45;;;;;;;;;;5062232;28;20127;-56
2023/10/19 06:57:50;;;;;;;2.70;1.65;;;;;;;;;;5060508;28;20028;-55
2023/10/19 07:00:20;;;;;;;1.70;1.60;;;;;;;;;;5063147;28;20033;-56
2023/10/19 07:02:50;;;;;;;1.50;1.40;;;;;;;;;;5061542;28;20516;-56
2023/10/19 07:05:35;;;;;;;11.60;1.40;;;;;;;;;;5063206;28;20114;-57
2023/10/19 07:08:02;;;;;;;2.03;1.38;;;;;;;;;;5063674;28;20048;-57
2023/10/19 07:10:28;;;;;;;1.00;1.00;;;;;;;;;;5061979;28;20076;-56
2023/10/19 07:12:55;;;;;;;1.85;1.75;;;;;;;;;;5062529;28;20036;-56
2023/10/19 07:15:22;;;;;;;1.23;1.13;;;;;;;;;;5062664;28;20040;-56
2023/10/19 07:17:49;;;;;;;0.90;0.90;;;;;;;;;;5059243;28;20807;-56
2023/10/19 07:20:25;;;;;;;1.20;1.08;;;;;;;;;;5064517;28;20090;-56
2023/10/19 07:23:02;;;;;;;1.70;1.60;;;;;;;;;;5061727;28;20123;-56
2023/10/19 07:25:29;;;;;;;1.67;1.58;;;;;;;;;;5061839;28;20044;-56
2023/10/19 07:27:55;;;;;;;1.42;1.33;;;;;;;;;;5063159;28;20568;-56
2023/10/19 07:30:25;;;;;;;1.27;1.20;;;;;;;;;;5064634;28;20041;-56
2023/10/19 07:32:54;;;;;;;1.30;1.20;;;;;;;;;;5060160;28;20092;-56
2023/10/19 07:35:21;;;;;;;1.20;1.15;;;;;;;;;;5060182;28;20175;-56
2023/10/19 07:37:48;;;;;;;1.00;1.00;;;;;;;;;;5063346;28;20044;-56
2023/10/19 07:40:15;;;;;;;1.40;1.30;;;;;;;;;;5062696;28;20048;-57
2023/10/19 07:42:42;;;;;;;1.70;1.60;;;;;;;;;;5063273;28;20036;-55
2023/10/19 07:45:11;;;;;;;1.30;1.20;;;;;;;;;;5063473;28;20083;-55
2023/10/19 07:47:40;;;;;;;1.65;1.15;;;;;;;;;;5062761;28;20106;-57
2023/10/19 07:50:11;;;;;;;1.33;1.23;;;;;;;;;;5060309;28;20472;-55
2023/10/19 07:52:38;;;;;;;1.23;1.13;;;;;;;;;;5063868;28;20052;-56
2023/10/19 07:55:05;;;;;;;0.85;0.85;;;;;;;;;;5062622;28;20078;-56
2023/10/19 07:57:31;;;;;;;1.10;1.10;;;;;;;;;;5058678;28;20039;-56
2023/10/19 07:59:58;;;;;;;1.40;1.30;;;;;;;;;;5063883;28;20032;-57
2023/10/19 08:02:24;;;;;;;1.00;1.00;;;;;;;;;;5064289;28;20064;-56
2023/10/19 08:04:51;;;;;;;1.20;1.20;;;;;;;;;;5065970;28;20265;-57
2023/10/19 08:07:17;;;;;;;1.00;1.00;;;;;;;;;;5065670;28;20533;-57
2023/10/19 08:09:43;;;;;;;1.00;1.00;;;;;;;;;;5062855;28;20106;-56
2023/10/19 08:12:11;;;;;;;0.73;0.73;;;;;;;;;;5062534;28;20041;-56
2023/10/19 08:14:37;;;;;;;1.00;1.00;;;;;;;;;;5061475;28;20036;-56
2023/10/19 08:17:03;;;;;;;1.20;1.10;;;;;;;;;;5063089;28;20064;-56
2023/10/19 08:19:31;;;;;;;0.60;0.60;;;;;;;;;;5063804;28;20080;-57
2023/10/19 08:21:57;;;;;;;0.73;0.73;;;;;;;;;;5061971;28;20381;-58
2023/10/19 08:24:23;;;;;;;0.90;0.90;;;;;;;;;;5058077;28;20595;-58
2023/10/19 08:26:50;;;;;;;0.80;0.80;;;;;;;;;;5054683;28;20055;-58
2023/10/19 08:29:19;;;;;;;1.30;1.20;;;;;;;;;;5061418;28;20040;-58
2023/10/19 08:31:45;;;;;;;1.17;1.08;;;;;;;;;;5060825;28;20365;-58
2023/10/19 08:34:12;;;;;;;1.08;0.98;;;;;;;;;;5062130;28;20044;-58
2023/10/19 08:36:38;;;;;;;1.00;1.00;;;;;;;;;;5062148;28;20040;-58
2023/10/19 08:39:08;;;;;;;1.30;1.20;;;;;;;;;;5060552;28;20132;-57
2023/10/19 08:41:36;;;;;;;1.38;1.27;;;;;;;;;;5062241;28;20488;-57
2023/10/19 08:44:11;;;;;;;1.50;1.40;;;;;;;;;;5042968;28;20076;-58
2023/10/19 08:46:45;;;;;;;1.65;1.50;;;;;;;;;;5061809;28;20060;-58
2023/10/19 08:49:12;;;;;;;1.35;1.25;;;;;;;;;;5057767;28;20169;-58
2023/10/19 08:51:39;;;;;;;1.48;1.38;;;;;;;;;;5063053;28;20518;-57
2023/10/19 08:54:10;;;;;;;0.82;0.82;;;;;;;;;;5055685;28;20090;-58
2023/10/19 08:56:36;;;;;;;1.17;1.13;;;;;;;;;;5058822;28;20036;-57
2023/10/19 08:59:02;;;;;;;1.65;1.40;;;;;;;;;;5062346;28;20535;-58
2023/10/19 09:01:29;;;;;;;1.52;1.42;;;;;;;;;;5062939;28;20040;-55
2023/10/19 09:03:58;;;;;;;1.60;1.50;;;;;;;;;;5061292;28;20594;-58
2023/10/19 09:06:25;;;;;;;1.17;1.15;;;;;;;;;;5062992;28;20559;-63
2023/10/19 09:08:51;;;;;;;1.20;1.10;;;;;;;;;;5059965;28;20058;-58
2023/10/19 09:11:20;;;;;;;1.35;1.25;;;;;;;;;;5058626;28;20255;-59
2023/10/19 09:13:50;;;;;;;1.80;1.70;;;;;;;;;;5061631;28;20056;-59
2023/10/19 09:16:26;;;;;;;1.90;1.80;;;;;;;;;;5064435;28;20396;-59
2023/10/19 09:18:52;;;;;;;1.83;1.70;;;;;;;;;;5062855;28;20442;-59
2023/10/19 09:21:24;;;;;;;2.70;2.50;;;;;;;;;;5065672;28;20615;-60
2023/10/19 09:23:51;;;;;;;2.53;2.33;;;;;;;;;;5064733;28;20554;-59
2023/10/19 09:26:18;;;;;;;2.45;2.20;;;;;;;;;;5064347;28;20739;-60
2023/10/19 09:28:47;;;;;;;2.72;2.53;;;;;;;;;;5065579;28;20086;-59
2023/10/19 09:31:13;;;;;;;2.28;2.17;;;;;;;;;;5063584;28;20075;-59
2023/10/19 09:33:43;;;;;;;2.00;1.90;;;;;;;;;;5065905;28;20120;-57
2023/10/19 09:36:13;;;;;;;2.30;2.10;;;;;;;;;;5065542;28;20047;-61
2023/10/19 09:38:41;;;;;;;2.30;2.10;;;;;;;;;;5065285;28;20068;-59
2023/10/19 09:41:09;;;;;;;2.47;2.28;;;;;;;;;;5064485;28;20087;-57
2023/10/19 09:43:35;;;;;;;2.90;2.70;;;;;;;;;;5066029;28;20043;-57
2023/10/19 09:46:06;;;;;;;2.80;2.60;;;;;;;;;;5063099;28;20148;-58
2023/10/19 09:48:35;;;;;;;2.60;2.40;;;;;;;;;;5065381;28;20550;-58
2023/10/19 09:51:02;;;;;;;1.65;1.55;;;;;;;;;;5062901;28;20129;-58
2023/10/19 09:53:29;;;;;;;2.42;2.22;;;;;;;;;;5061029;28;20125;-58
2023/10/19 09:55:58;;;;;;;2.67;2.33;;;;;;;;;;5062698;28;20040;-61
2023/10/19 09:58:26;;;;;;;2.50;2.30;;;;;;;;;;5062180;28;20044;-58
2023/10/19 10:00:52;;;;;;;2.75;2.55;;;;;;;;;;5062893;28;20090;-58
2023/10/19 10:03:37;;;;;;;2.72;2.53;;;;;;;;;;5065127;28;20056;-58
2023/10/19 10:06:04;;;;;;;2.83;2.63;;;;;;;;;;5065463;28;20053;-58
2023/10/19 10:08:31;;;;;;;3.13;2.88;;;;;;;;;;5060949;28;20044;-58
2023/10/19 10:10:57;;;;;;;2.60;2.40;;;;;;;;;;5062555;28;20040;-58
2023/10/19 10:13:26;;;;;;;3.22;2.92;;;;;;;;;;5062702;28;20488;-58
2023/10/19 10:15:57;;;;;;;8.90;3.53;;;;;;;;;;5056792;28;20381;-58
2023/10/19 10:18:27;;;;;;;3.40;3.13;;;;;;;;;;5065576;28;20040;-58
2023/10/19 10:21:09;;;;;;;2.65;2.42;;;;;;;;;;5061084;28;20452;-58
2023/10/19 10:23:42;;;;;;;4.30;3.00;;;;;;;;;;5063353;28;20040;-58
2023/10/19 10:26:09;;;;;;;3.38;3.08;;;;;;;;;;5061997;28;20040;-57
2023/10/19 10:28:38;;;;;;;2.97;2.78;;;;;;;;;;5060284;28;20304;-58
2023/10/19 10:31:07;;;;;;;4.03;3.63;;;;;;;;;;5064386;28;20048;-58
2023/10/19 10:33:40;;;;;;;3.50;3.20;;;;;;;;;;5065016;28;20087;-58
2023/10/19 10:36:07;;;;;;;5.20;3.03;;;;;;;;;;5065102;28;20408;-57
2023/10/19 10:38:36;;;;;;;2.60;2.40;;;;;;;;;;5062315;28;20048;-58
2023/10/19 10:41:02;;;;;;;3.85;3.33;;;;;;;;;;5066288;28;20055;-57
2023/10/19 10:43:28;;;;;;;3.15;2.90;;;;;;;;;;5064678;28;20053;-58
2023/10/19 10:46:10;;;;;;;2.92;2.72;;;;;;;;;;5060808;28;20041;-59
2023/10/19 10:48:41;;;;;;;2.03;1.83;;;;;;;;;;5058503;28;20500;-60
2023/10/19 10:51:21;;;;;;;3.35;2.15;;;;;;;;;;5072862;28;20031;-60
2023/10/19 10:53:48;;;;;;;2.70;2.50;;;;;;;;;;5075126;28;20038;-60
2023/10/19 10:56:14;;;;;;;1.83;1.70;;;;;;;;;;5064421;28;20076;-60
2023/10/19 10:58:41;;;;;;;2.92;2.72;;;;;;;;;;5063129;28;20036;-60
2023/10/19 11:01:07;;;;;;;2.90;2.70;;;;;;;;;;5063266;28;20049;-59
2023/10/19 11:03:33;;;;;;;2.97;2.78;;;;;;;;;;5068750;28;20056;-59
2023/10/19 11:06:07;;;;;;;2.90;2.60;;;;;;;;;;5072676;28;20040;-59
2023/10/19 11:08:34;;;;;;;2.58;2.38;;;;;;;;;;5063975;28;20684;-60
2023/10/19 11:11:10;;;;;;;3.60;2.53;;;;;;;;;;5062607;28;20048;-59
2023/10/19 11:13:38;;;;;;;2.40;2.20;;;;;;;;;;5065291;28;20059;-59
2023/10/19 11:16:05;;;;;;;2.30;2.10;;;;;;;;;;5065117;28;20052;-60
2023/10/19 11:18:32;;;;;;;2.20;1.80;;;;;;;;;;5064282;28;20527;-59
2023/10/19 11:20:59;;;;;;;2.50;2.20;;;;;;;;;;5064537;28;20033;-61
2023/10/19 11:24:01;;;;;;;2.17;1.98;;;;;;;;;;5064536;28;20123;-60
2023/10/19 11:26:27;;;;;;;2.23;2.13;;;;;;;;;;4983245;28;20038;-60
2023/10/19 11:29:09;;;;;;;2.13;2.03;;;;;;;;;;5047236;28;20091;-59
2023/10/19 11:31:39;;;;;;;2.90;2.70;;;;;;;;;;5063346;28;20062;-60
2023/10/19 11:34:06;;;;;;;2.67;2.40;;;;;;;;;;5064079;28;20483;-59
2023/10/19 11:36:32;;;;;;;2.50;2.30;;;;;;;;;;5063800;28;20044;-59
2023/10/19 11:38:58;;;;;;;2.42;2.22;;;;;;;;;;5064982;28;20519;-59
2023/10/19 11:41:24;;;;;;;2.40;2.20;;;;;;;;;;5062852;28;20404;-59
2023/10/19 11:43:50;;;;;;;2.35;2.15;;;;;;;;;;5064477;28;20037;-59
2023/10/19 11:46:25;;;;;;;3.03;2.75;;;;;;;;;;5060243;28;20052;-59
2023/10/19 11:48:51;;;;;;;3.25;2.60;;;;;;;;;;5063814;28;20067;-59
2023/10/19 11:51:17;;;;;;;2.63;2.42;;;;;;;;;;5064537;28;20036;-60
2023/10/19 11:53:44;;;;;;;2.00;1.90;;;;;;;;;;5061995;28;20044;-59
2023/10/19 11:56:12;;;;;;;2.08;1.85;;;;;;;;;;5066712;28;20040;-59
2023/10/19 11:58:40;;;;;;;2.30;2.13;;;;;;;;;;5066797;28;20045;-59
2023/10/19 12:01:13;;;;;;;2.63;2.42;;;;;;;;;;5063355;28;20715;-59
2023/10/19 12:03:40;;;;;;;2.20;2.10;;;;;;;;;;5071038;28;20120;-59
2023/10/19 12:06:10;;;;;;;2.70;2.53;;;;;;;;;;5074971;28;20091;-59
2023/10/19 12:08:38;;;;;;;2.50;2.30;;;;;;;;;;5073948;28;20174;-59
2023/10/19 12:11:05;;;;;;;2.35;2.17;;;;;;;;;;5067772;28;20051;-58
2023/10/19 12:13:32;;;;;;;2.63;2.42;;;;;;;;;;5071639;28;20078;-59
2023/10/19 12:15:58;;;;;;;3.10;2.90;;;;;;;;;;5051785;28;20162;-60
2023/10/19 12:18:26;;;;;;;3.70;3.33;;;;;;;;;;5064888;28;20467;-59
2023/10/19 12:20:56;;;;;;;2.92;2.72;;;;;;;;;;5064267;28;20503;-59
2023/10/19 12:23:23;;;;;;;4.22;3.92;;;;;;;;;;5064382;28;20476;-59
2023/10/19 12:25:49;;;;;;;6.60;5.32;;;;;;;;;;5062088;28;20043;-59
2023/10/19 12:28:15;;;;;;;6.45;5.95;;;;;;;;;;5064101;28;20109;-58
2023/10/19 12:30:42;;;;;;;5.90;5.50;;;;;;;;;;5064428;28;20051;-59
2023/10/19 12:33:11;;;;;;;6.63;6.13;;;;;;;;;;5065731;28;20098;-59
2023/10/19 12:35:51;;;;;;;7.80;7.10;;;;;;;;;;5044297;28;20083;-60
2023/10/19 12:38:17;;;;;;;7.47;6.78;;;;;;;;;;5062919;28;20086;-60
2023/10/19 12:40:47;;;;;;;6.55;6.05;;;;;;;;;;5065706;28;20036;-60
2023/10/19 12:43:14;;;;;;;6.03;5.53;;;;;;;;;;5062144;28;20033;-59
2023/10/19 12:45:41;;;;;;;5.85;5.35;;;;;;;;;;5065305;28;20042;-58
2023/10/19 12:48:07;;;;;;;5.35;4.85;;;;;;;;;;5064786;28;20047;-59
2023/10/19 12:50:37;;;;;;;5.30;4.90;;;;;;;;;;5069076;28;20494;-59
2023/10/19 12:53:03;;;;;;;5.22;4.72;;;;;;;;;;5069325;28;20039;-59
2023/10/19 12:55:30;;;;;;;5.07;4.68;;;;;;;;;;5068578;28;20040;-60
2023/10/19 12:57:57;;;;;;;3.85;3.55;;;;;;;;;;5068978;28;20041;-59
2023/10/19 13:00:24;;;;;;;5.05;4.65;;;;;;;;;;5069426;28;20044;-59
2023/10/19 13:02:50;;;;;;;4.88;4.38;;;;;;;;;;5067607;28;20056;-59
2023/10/19 13:05:20;;;;;;;4.32;4.03;;;;;;;;;;5068809;28;20779;-59
2023/10/19 13:07:46;;;;;;;6.05;4.07;;;;;;;;;;5067978;28;20074;-59
2023/10/19 13:10:12;;;;;;;8.07;4.15;;;;;;;;;;5067438;28;20044;-59
2023/10/19 13:12:39;;;;;;;3.80;3.45;;;;;;;;;;5068025;28;20032;-59
2023/10/19 13:15:12;;;;;;;3.03;2.72;;;;;;;;;;5068437;28;20047;-58
2023/10/19 13:17:38;;;;;;;3.10;2.90;;;;;;;;;;5067482;28;20440;-60
2023/10/19 13:20:15;;;;;;;3.42;3.20;;;;;;;;;;5067931;28;21955;-59
2023/10/19 13:22:42;;;;;;;3.80;3.50;;;;;;;;;;5068369;28;20188;-59
2023/10/19 13:25:16;;;;;;;3.88;3.25;;;;;;;;;;5067749;28;20507;-59
2023/10/19 13:27:44;;;;;;;3.33;3.08;;;;;;;;;;5068818;28;20044;-59
2023/10/19 13:30:10;;;;;;;3.67;3.38;;;;;;;;;;5060086;28;20052;-59
2023/10/19 13:32:37;;;;;;;2.97;2.65;;;;;;;;;;5066302;28;20587;-59
2023/10/19 13:35:03;;;;;;;2.72;2.53;;;;;;;;;;5049808;28;20082;-59
2023/10/19 13:37:29;;;;;;;3.15;2.90;;;;;;;;;;5067441;28;20068;-59
2023/10/19 13:39:55;;;;;;;3.08;2.60;;;;;;;;;;5067542;28;20086;-59
2023/10/19 13:42:21;;;;;;;2.80;2.50;;;;;;;;;;5067757;28;20040;-59
2023/10/19 13:44:47;;;;;;;4.32;2.90;;;;;;;;;;5066537;28;20041;-59
2023/10/19 13:47:15;;;;;;;4.40;2.65;;;;;;;;;;5067847;28;20471;-59
2023/10/19 13:49:41;;;;;;;3.22;2.97;;;;;;;;;;5067910;28;20100;-58
2023/10/19 13:52:08;;;;;;;2.80;2.60;;;;;;;;;;5067165;28;20040;-59
2023/10/19 13:54:35;;;;;;;3.08;2.75;;;;;;;;;;5068014;28;20043;-59
2023/10/19 13:57:02;;;;;;;3.15;2.90;;;;;;;;;;5067996;28;20036;-58
2023/10/19 13:59:33;;;;;;;4.28;2.80;;;;;;;;;;5066817;28;20087;-59
2023/10/19 14:01:59;;;;;;;2.92;2.60;;;;;;;;;;5063126;28;20517;-58
2023/10/19 14:04:25;;;;;;;4.20;3.20;;;;;;;;;;5067932;28;20159;-58
2023/10/19 14:06:53;;;;;;;3.85;3.45;;;;;;;;;;5066591;28;20048;-60
2023/10/19 14:09:23;;;;;;;3.95;3.53;;;;;;;;;;5067671;28;20567;-58
2023/10/19 14:11:49;;;;;;;3.65;3.35;;;;;;;;;;5067973;28;20119;-59
2023/10/19 14:14:15;;;;;;;3.17;2.88;;;;;;;;;;5068734;28;20040;-59
2023/10/19 14:16:42;;;;;;;4.85;3.88;;;;;;;;;;5069477;28;20049;-58
2023/10/19 14:19:08;;;;;;;5.18;4.68;;;;;;;;;;5066080;28;20087;-58
2023/10/19 14:21:37;;;;;;;5.00;4.50;;;;;;;;;;5066059;28;20067;-58
2023/10/19 14:24:03;;;;;;;4.85;4.20;;;;;;;;;;5066534;28;20124;-58
2023/10/19 14:26:30;;;;;;;4.05;3.60;;;;;;;;;;5065974;28;20071;-58
2023/10/19 14:28:56;;;;;;;5.85;3.30;;;;;;;;;;5062651;28;20047;-59
2023/10/19 14:31:22;;;;;;;3.97;3.60;;;;;;;;;;5064972;28;20040;-58
2023/10/19 14:33:48;;;;;;;4.43;3.53;;;;;;;;;;5062470;28;20505;-59
2023/10/19 14:36:14;;;;;;;5.38;3.75;;;;;;;;;;5061925;28;20036;-58
2023/10/19 14:38:43;;;;;;;5.10;4.03;;;;;;;;;;5068942;28;20032;-58
2023/10/19 14:41:09;;;;;;;4.72;3.85;;;;;;;;;;5068497;28;20150;-58
2023/10/19 14:43:35;;;;;;;5.43;3.95;;;;;;;;;;5068684;28;20507;-58
2023/10/19 14:46:01;;;;;;;3.25;2.85;;;;;;;;;;5064887;28;20443;-59
2023/10/19 14:48:28;;;;;;;4.38;3.47;;;;;;;;;;5065358;28;20077;-59
2023/10/19 14:50:57;;;;;;;3.97;3.22;;;;;;;;;;5064494;28;20476;-59
2023/10/19 14:53:24;;;;;;;3.53;3.22;;;;;;;;;;5060816;28;20040;-59
2023/10/19 14:55:50;;;;;;;4.53;3.60;;;;;;;;;;5062618;28;20049;-59
2023/10/19 14:58:16;;;;;;;3.60;3.28;;;;;;;;;;5061684;28;20465;-59
2023/10/19 15:00:43;;;;;;;4.43;3.45;;;;;;;;;;5064009;28;20148;-59